sensor_id;sensor_type;location;lat;lon;timestamp;P1;durP1;ratioP1;P2;durP2;ratioP2
26407;SDS011;14583;43.604;1.364;2023-04-24T00:00:50;9.35;;;3.60;;
26407;SDS011;14583;43.604;1.364;2023-04-24T00:03:17;8.68;;;3.60;;
26407;SDS011;14583;43.604;1.364;2023-04-24T00:05:46;7.85;;;3.58;;
26407;SDS011;14583;43.604;1.364;2023-04-24T00:08:11;9.30;;;3.58;;
26407;SDS011;14583;43.604;1.364;2023-04-24T00:10:37;11.68;;;3.47;;
26407;SDS011;14583;43.604;1.364;2023-04-24T00:13:03;12.95;;;3.45;;
26407;SDS011;14583;43.604;1.364;2023-04-24T00:15:29;10.52;;;3.28;;
26407;SDS011;14583;43.604;1.364;2023-04-24T00:17:54;9.70;;;3.58;;
26407;SDS011;14583;43.604;1.364;2023-04-24T00:20:20;10.20;;;3.13;;
26407;SDS011;14583;43.604;1.364;2023-04-24T00:22:46;9.32;;;3.40;;
26407;SDS011;14583;43.604;1.364;2023-04-24T00:25:11;8.93;;;3.20;;
26407;SDS011;14583;43.604;1.364;2023-04-24T00:27:37;9.60;;;3.13;;
26407;SDS011;14583;43.604;1.364;2023-04-24T00:30:03;10.25;;;3.55;;
26407;SDS011;14583;43.604;1.364;2023-04-24T00:32:30;13.85;;;3.05;;
26407;SDS011;14583;43.604;1.364;2023-04-24T00:34:55;10.38;;;3.15;;
26407;SDS011;14583;43.604;1.364;2023-04-24T00:37:21;7.03;;;2.80;;
26407;SDS011;14583;43.604;1.364;2023-04-24T00:39:47;10.40;;;2.95;;
26407;SDS011;14583;43.604;1.364;2023-04-24T00:42:12;11.35;;;3.25;;
26407;SDS011;14583;43.604;1.364;2023-04-24T00:44:38;9.70;;;3.03;;
26407;SDS011;14583;43.604;1.364;2023-04-24T00:47:04;11.35;;;3.00;;
26407;SDS011;14583;43.604;1.364;2023-04-24T00:49:30;9.27;;;3.10;;
26407;SDS011;14583;43.604;1.364;2023-04-24T00:51:55;13.32;;;3.85;;
26407;SDS011;14583;43.604;1.364;2023-04-24T00:54:21;9.43;;;3.30;;
26407;SDS011;14583;43.604;1.364;2023-04-24T00:56:47;10.50;;;3.15;;
26407;SDS011;14583;43.604;1.364;2023-04-24T00:59:14;9.20;;;3.30;;
26407;SDS011;14583;43.604;1.364;2023-04-24T01:01:42;7.63;;;2.78;;
26407;SDS011;14583;43.604;1.364;2023-04-24T01:04:09;7.60;;;2.67;;
26407;SDS011;14583;43.604;1.364;2023-04-24T01:06:36;7.25;;;3.10;;
26407;SDS011;14583;43.604;1.364;2023-04-24T01:09:04;6.75;;;2.97;;
26407;SDS011;14583;43.604;1.364;2023-04-24T01:11:33;5.55;;;2.63;;
26407;SDS011;14583;43.604;1.364;2023-04-24T01:13:58;10.50;;;3.13;;
26407;SDS011;14583;43.604;1.364;2023-04-24T01:16:25;8.35;;;2.97;;
26407;SDS011;14583;43.604;1.364;2023-04-24T01:18:51;7.57;;;2.85;;
26407;SDS011;14583;43.604;1.364;2023-04-24T01:21:16;9.43;;;3.30;;
26407;SDS011;14583;43.604;1.364;2023-04-24T01:23:45;6.82;;;2.92;;
26407;SDS011;14583;43.604;1.364;2023-04-24T01:26:11;11.13;;;3.00;;
26407;SDS011;14583;43.604;1.364;2023-04-24T01:28:38;11.63;;;3.35;;
26407;SDS011;14583;43.604;1.364;2023-04-24T01:31:04;12.73;;;3.17;;
26407;SDS011;14583;43.604;1.364;2023-04-24T01:33:30;12.32;;;3.40;;
26407;SDS011;14583;43.604;1.364;2023-04-24T01:35:56;6.40;;;2.40;;
26407;SDS011;14583;43.604;1.364;2023-04-24T01:38:22;7.85;;;2.78;;
26407;SDS011;14583;43.604;1.364;2023-04-24T01:40:49;8.05;;;2.70;;
26407;SDS011;14583;43.604;1.364;2023-04-24T01:43:16;7.82;;;2.60;;
26407;SDS011;14583;43.604;1.364;2023-04-24T01:45:41;11.68;;;3.30;;
26407;SDS011;14583;43.604;1.364;2023-04-24T01:48:07;12.55;;;2.90;;
26407;SDS011;14583;43.604;1.364;2023-04-24T01:50:33;7.97;;;2.50;;
26407;SDS011;14583;43.604;1.364;2023-04-24T01:52:59;11.85;;;3.00;;
26407;SDS011;14583;43.604;1.364;2023-04-24T01:55:24;13.45;;;3.40;;
26407;SDS011;14583;43.604;1.364;2023-04-24T01:57:52;14.63;;;3.03;;
26407;SDS011;14583;43.604;1.364;2023-04-24T02:00:20;14.40;;;3.05;;
26407;SDS011;14583;43.604;1.364;2023-04-24T02:02:46;10.48;;;2.47;;
26407;SDS011;14583;43.604;1.364;2023-04-24T02:05:12;9.45;;;2.78;;
26407;SDS011;14583;43.604;1.364;2023-04-24T02:07:37;9.82;;;3.40;;
26407;SDS011;14583;43.604;1.364;2023-04-24T02:10:03;12.70;;;3.13;;
26407;SDS011;14583;43.604;1.364;2023-04-24T02:12:29;13.77;;;3.17;;
26407;SDS011;14583;43.604;1.364;2023-04-24T02:14:55;11.63;;;3.15;;
26407;SDS011;14583;43.604;1.364;2023-04-24T02:17:21;14.25;;;3.10;;
26407;SDS011;14583;43.604;1.364;2023-04-24T02:19:47;8.38;;;2.92;;
26407;SDS011;14583;43.604;1.364;2023-04-24T02:22:13;10.20;;;2.83;;
26407;SDS011;14583;43.604;1.364;2023-04-24T02:24:38;9.00;;;2.97;;
26407;SDS011;14583;43.604;1.364;2023-04-24T02:27:04;9.32;;;2.72;;
26407;SDS011;14583;43.604;1.364;2023-04-24T02:29:30;13.07;;;3.15;;
26407;SDS011;14583;43.604;1.364;2023-04-24T02:31:56;12.02;;;2.75;;
26407;SDS011;14583;43.604;1.364;2023-04-24T02:34:22;9.52;;;2.70;;
26407;SDS011;14583;43.604;1.364;2023-04-24T02:36:48;6.57;;;2.67;;
26407;SDS011;14583;43.604;1.364;2023-04-24T02:39:14;6.15;;;2.60;;
26407;SDS011;14583;43.604;1.364;2023-04-24T02:41:41;9.45;;;3.30;;
26407;SDS011;14583;43.604;1.364;2023-04-24T02:44:09;12.02;;;2.95;;
26407;SDS011;14583;43.604;1.364;2023-04-24T02:46:35;11.13;;;3.05;;
26407;SDS011;14583;43.604;1.364;2023-04-24T02:49:01;15.02;;;3.20;;
26407;SDS011;14583;43.604;1.364;2023-04-24T02:51:27;9.98;;;2.80;;
26407;SDS011;14583;43.604;1.364;2023-04-24T02:53:53;12.02;;;3.08;;
26407;SDS011;14583;43.604;1.364;2023-04-24T02:56:19;6.32;;;2.53;;
26407;SDS011;14583;43.604;1.364;2023-04-24T02:58:44;8.18;;;2.47;;
26407;SDS011;14583;43.604;1.364;2023-04-24T03:01:10;9.27;;;2.58;;
26407;SDS011;14583;43.604;1.364;2023-04-24T03:03:36;5.20;;;2.20;;
26407;SDS011;14583;43.604;1.364;2023-04-24T03:06:03;14.60;;;2.70;;
26407;SDS011;14583;43.604;1.364;2023-04-24T03:08:30;11.15;;;2.50;;
26407;SDS011;14583;43.604;1.364;2023-04-24T03:11:00;5.65;;;2.45;;
26407;SDS011;14583;43.604;1.364;2023-04-24T03:13:25;7.07;;;2.60;;
26407;SDS011;14583;43.604;1.364;2023-04-24T03:15:51;8.38;;;2.53;;
26407;SDS011;14583;43.604;1.364;2023-04-24T03:18:17;9.35;;;3.10;;
26407;SDS011;14583;43.604;1.364;2023-04-24T03:20:45;14.98;;;2.72;;
26407;SDS011;14583;43.604;1.364;2023-04-24T03:23:13;13.07;;;2.70;;
26407;SDS011;14583;43.604;1.364;2023-04-24T03:25:40;12.90;;;2.70;;
26407;SDS011;14583;43.604;1.364;2023-04-24T03:28:07;9.98;;;2.90;;
26407;SDS011;14583;43.604;1.364;2023-04-24T03:30:33;8.98;;;3.10;;
26407;SDS011;14583;43.604;1.364;2023-04-24T03:32:59;9.63;;;2.90;;
26407;SDS011;14583;43.604;1.364;2023-04-24T03:35:25;9.55;;;2.55;;
26407;SDS011;14583;43.604;1.364;2023-04-24T03:37:51;8.68;;;2.67;;
26407;SDS011;14583;43.604;1.364;2023-04-24T03:40:16;10.10;;;2.47;;
26407;SDS011;14583;43.604;1.364;2023-04-24T03:42:42;7.32;;;2.65;;
26407;SDS011;14583;43.604;1.364;2023-04-24T03:45:08;9.98;;;2.50;;
26407;SDS011;14583;43.604;1.364;2023-04-24T03:47:34;8.18;;;2.45;;
26407;SDS011;14583;43.604;1.364;2023-04-24T03:50:00;7.05;;;2.70;;
26407;SDS011;14583;43.604;1.364;2023-04-24T03:52:26;9.18;;;2.65;;
26407;SDS011;14583;43.604;1.364;2023-04-24T03:54:52;7.82;;;2.47;;
26407;SDS011;14583;43.604;1.364;2023-04-24T03:57:18;9.00;;;2.35;;
26407;SDS011;14583;43.604;1.364;2023-04-24T03:59:44;11.13;;;2.55;;
26407;SDS011;14583;43.604;1.364;2023-04-24T04:02:09;12.40;;;2.38;;
26407;SDS011;14583;43.604;1.364;2023-04-24T04:04:35;11.85;;;2.30;;
26407;SDS011;14583;43.604;1.364;2023-04-24T04:07:00;9.40;;;2.97;;
26407;SDS011;14583;43.604;1.364;2023-04-24T04:09:27;10.73;;;3.13;;
26407;SDS011;14583;43.604;1.364;2023-04-24T04:11:54;9.48;;;2.15;;
26407;SDS011;14583;43.604;1.364;2023-04-24T04:14:20;10.77;;;2.58;;
26407;SDS011;14583;43.604;1.364;2023-04-24T04:16:46;13.38;;;2.60;;
26407;SDS011;14583;43.604;1.364;2023-04-24T04:19:12;13.48;;;2.42;;
26407;SDS011;14583;43.604;1.364;2023-04-24T04:21:37;13.85;;;2.75;;
26407;SDS011;14583;43.604;1.364;2023-04-24T04:24:03;10.95;;;2.50;;
26407;SDS011;14583;43.604;1.364;2023-04-24T04:26:30;16.33;;;2.63;;
26407;SDS011;14583;43.604;1.364;2023-04-24T04:28:57;14.43;;;2.70;;
26407;SDS011;14583;43.604;1.364;2023-04-24T04:31:23;8.85;;;2.70;;
26407;SDS011;14583;43.604;1.364;2023-04-24T04:33:49;13.35;;;2.95;;
26407;SDS011;14583;43.604;1.364;2023-04-24T04:36:15;10.32;;;2.65;;
26407;SDS011;14583;43.604;1.364;2023-04-24T04:38:42;14.75;;;3.17;;
26407;SDS011;14583;43.604;1.364;2023-04-24T04:41:09;16.38;;;3.15;;
26407;SDS011;14583;43.604;1.364;2023-04-24T04:43:35;11.07;;;2.67;;
26407;SDS011;14583;43.604;1.364;2023-04-24T04:46:01;11.15;;;3.25;;
26407;SDS011;14583;43.604;1.364;2023-04-24T04:48:28;12.68;;;2.72;;
26407;SDS011;14583;43.604;1.364;2023-04-24T04:50:56;12.70;;;2.85;;
26407;SDS011;14583;43.604;1.364;2023-04-24T04:53:22;14.90;;;3.10;;
26407;SDS011;14583;43.604;1.364;2023-04-24T04:55:47;13.77;;;2.72;;
26407;SDS011;14583;43.604;1.364;2023-04-24T04:58:13;12.05;;;2.72;;
26407;SDS011;14583;43.604;1.364;2023-04-24T05:00:39;11.77;;;2.72;;
26407;SDS011;14583;43.604;1.364;2023-04-24T05:03:04;18.17;;;3.53;;
26407;SDS011;14583;43.604;1.364;2023-04-24T05:05:31;14.27;;;3.85;;
26407;SDS011;14583;43.604;1.364;2023-04-24T05:07:56;13.70;;;3.40;;
26407;SDS011;14583;43.604;1.364;2023-04-24T05:10:22;21.63;;;3.65;;
26407;SDS011;14583;43.604;1.364;2023-04-24T05:12:48;21.83;;;3.58;;
26407;SDS011;14583;43.604;1.364;2023-04-24T05:15:14;17.05;;;2.95;;
26407;SDS011;14583;43.604;1.364;2023-04-24T05:17:40;15.45;;;3.28;;
26407;SDS011;14583;43.604;1.364;2023-04-24T05:20:06;16.48;;;2.88;;
26407;SDS011;14583;43.604;1.364;2023-04-24T05:22:32;12.73;;;3.45;;
26407;SDS011;14583;43.604;1.364;2023-04-24T05:24:57;13.27;;;3.25;;
26407;SDS011;14583;43.604;1.364;2023-04-24T05:27:24;11.90;;;2.78;;
26407;SDS011;14583;43.604;1.364;2023-04-24T05:29:49;22.23;;;3.47;;
26407;SDS011;14583;43.604;1.364;2023-04-24T05:32:16;17.88;;;3.90;;
26407;SDS011;14583;43.604;1.364;2023-04-24T05:34:41;15.07;;;3.40;;
26407;SDS011;14583;43.604;1.364;2023-04-24T05:37:07;9.20;;;2.75;;
26407;SDS011;14583;43.604;1.364;2023-04-24T05:39:35;12.80;;;2.47;;
26407;SDS011;14583;43.604;1.364;2023-04-24T05:42:01;17.80;;;3.70;;
26407;SDS011;14583;43.604;1.364;2023-04-24T05:44:28;9.60;;;2.35;;
26407;SDS011;14583;43.604;1.364;2023-04-24T05:46:56;13.45;;;2.72;;
26407;SDS011;14583;43.604;1.364;2023-04-24T05:49:22;18.75;;;3.15;;
26407;SDS011;14583;43.604;1.364;2023-04-24T05:51:48;22.52;;;4.32;;
26407;SDS011;14583;43.604;1.364;2023-04-24T05:54:13;13.20;;;3.83;;
26407;SDS011;14583;43.604;1.364;2023-04-24T05:56:39;11.30;;;3.67;;
26407;SDS011;14583;43.604;1.364;2023-04-24T05:59:05;16.10;;;3.65;;
26407;SDS011;14583;43.604;1.364;2023-04-24T06:01:30;16.75;;;4.00;;
26407;SDS011;14583;43.604;1.364;2023-04-24T06:03:56;18.45;;;3.50;;
26407;SDS011;14583;43.604;1.364;2023-04-24T06:06:23;10.82;;;3.25;;
26407;SDS011;14583;43.604;1.364;2023-04-24T06:08:49;13.75;;;3.42;;
26407;SDS011;14583;43.604;1.364;2023-04-24T06:11:14;14.63;;;3.17;;
26407;SDS011;14583;43.604;1.364;2023-04-24T06:13:40;10.80;;;2.83;;
26407;SDS011;14583;43.604;1.364;2023-04-24T06:16:06;16.60;;;3.80;;
26407;SDS011;14583;43.604;1.364;2023-04-24T06:18:32;16.75;;;3.60;;
26407;SDS011;14583;43.604;1.364;2023-04-24T06:20:57;14.55;;;3.03;;
26407;SDS011;14583;43.604;1.364;2023-04-24T06:23:23;18.38;;;4.10;;
26407;SDS011;14583;43.604;1.364;2023-04-24T06:25:48;13.68;;;3.53;;
26407;SDS011;14583;43.604;1.364;2023-04-24T06:28:15;20.13;;;3.33;;
26407;SDS011;14583;43.604;1.364;2023-04-24T06:30:40;16.83;;;3.10;;
26407;SDS011;14583;43.604;1.364;2023-04-24T06:33:06;13.73;;;3.17;;
26407;SDS011;14583;43.604;1.364;2023-04-24T06:35:32;12.93;;;2.88;;
26407;SDS011;14583;43.604;1.364;2023-04-24T06:37:57;16.35;;;3.42;;
26407;SDS011;14583;43.604;1.364;2023-04-24T06:40:23;14.52;;;3.25;;
26407;SDS011;14583;43.604;1.364;2023-04-24T06:42:49;21.92;;;4.50;;
26407;SDS011;14583;43.604;1.364;2023-04-24T06:45:15;13.65;;;2.95;;
26407;SDS011;14583;43.604;1.364;2023-04-24T06:47:40;16.58;;;3.20;;
26407;SDS011;14583;43.604;1.364;2023-04-24T06:50:06;17.00;;;2.90;;
26407;SDS011;14583;43.604;1.364;2023-04-24T06:52:32;16.08;;;2.97;;
26407;SDS011;14583;43.604;1.364;2023-04-24T06:55:01;17.48;;;3.20;;
26407;SDS011;14583;43.604;1.364;2023-04-24T06:57:28;13.23;;;2.63;;
26407;SDS011;14583;43.604;1.364;2023-04-24T06:59:54;12.55;;;2.90;;
26407;SDS011;14583;43.604;1.364;2023-04-24T07:02:20;15.20;;;2.83;;
26407;SDS011;14583;43.604;1.364;2023-04-24T07:04:45;11.75;;;3.15;;
26407;SDS011;14583;43.604;1.364;2023-04-24T07:07:12;16.17;;;3.33;;
26407;SDS011;14583;43.604;1.364;2023-04-24T07:09:39;12.27;;;3.33;;
26407;SDS011;14583;43.604;1.364;2023-04-24T07:12:07;10.70;;;2.55;;
26407;SDS011;14583;43.604;1.364;2023-04-24T07:14:33;11.00;;;3.22;;
26407;SDS011;14583;43.604;1.364;2023-04-24T07:17:03;13.82;;;3.92;;
26407;SDS011;14583;43.604;1.364;2023-04-24T07:19:29;13.27;;;3.30;;
26407;SDS011;14583;43.604;1.364;2023-04-24T07:21:54;10.02;;;2.50;;
26407;SDS011;14583;43.604;1.364;2023-04-24T07:24:20;11.57;;;2.63;;
26407;SDS011;14583;43.604;1.364;2023-04-24T07:26:46;8.65;;;2.33;;
26407;SDS011;14583;43.604;1.364;2023-04-24T07:29:12;7.75;;;2.35;;
26407;SDS011;14583;43.604;1.364;2023-04-24T07:31:38;11.38;;;2.47;;
26407;SDS011;14583;43.604;1.364;2023-04-24T07:34:05;5.88;;;2.00;;
26407;SDS011;14583;43.604;1.364;2023-04-24T07:36:31;7.20;;;1.90;;
26407;SDS011;14583;43.604;1.364;2023-04-24T07:38:57;6.95;;;1.90;;
26407;SDS011;14583;43.604;1.364;2023-04-24T07:41:23;7.65;;;1.98;;
26407;SDS011;14583;43.604;1.364;2023-04-24T07:43:49;6.07;;;2.00;;
26407;SDS011;14583;43.604;1.364;2023-04-24T07:46:15;5.88;;;1.92;;
26407;SDS011;14583;43.604;1.364;2023-04-24T07:48:41;8.05;;;1.98;;
26407;SDS011;14583;43.604;1.364;2023-04-24T07:51:06;9.65;;;2.35;;
26407;SDS011;14583;43.604;1.364;2023-04-24T07:53:35;8.25;;;2.15;;
26407;SDS011;14583;43.604;1.364;2023-04-24T07:56:00;9.07;;;2.15;;
26407;SDS011;14583;43.604;1.364;2023-04-24T07:58:26;9.02;;;2.17;;
26407;SDS011;14583;43.604;1.364;2023-04-24T08:00:52;12.85;;;2.70;;
26407;SDS011;14583;43.604;1.364;2023-04-24T08:03:17;7.63;;;1.92;;
26407;SDS011;14583;43.604;1.364;2023-04-24T08:05:44;11.48;;;2.38;;
26407;SDS011;14583;43.604;1.364;2023-04-24T08:08:10;6.65;;;1.90;;
26407;SDS011;14583;43.604;1.364;2023-04-24T08:10:36;9.40;;;1.70;;
26407;SDS011;14583;43.604;1.364;2023-04-24T08:13:02;13.55;;;2.15;;
26407;SDS011;14583;43.604;1.364;2023-04-24T08:15:27;9.60;;;2.10;;
26407;SDS011;14583;43.604;1.364;2023-04-24T08:17:53;13.80;;;2.22;;
26407;SDS011;14583;43.604;1.364;2023-04-24T08:20:19;7.78;;;2.30;;
26407;SDS011;14583;43.604;1.364;2023-04-24T08:22:44;9.75;;;2.08;;
26407;SDS011;14583;43.604;1.364;2023-04-24T08:25:12;11.00;;;2.40;;
26407;SDS011;14583;43.604;1.364;2023-04-24T08:27:38;7.45;;;1.73;;
26407;SDS011;14583;43.604;1.364;2023-04-24T08:30:04;6.15;;;1.77;;
26407;SDS011;14583;43.604;1.364;2023-04-24T08:32:30;5.45;;;1.73;;
26407;SDS011;14583;43.604;1.364;2023-04-24T08:34:56;8.65;;;1.83;;
26407;SDS011;14583;43.604;1.364;2023-04-24T08:37:25;6.80;;;1.73;;
26407;SDS011;14583;43.604;1.364;2023-04-24T08:39:52;4.85;;;1.80;;
26407;SDS011;14583;43.604;1.364;2023-04-24T08:42:18;8.40;;;1.73;;
26407;SDS011;14583;43.604;1.364;2023-04-24T08:44:45;7.65;;;1.98;;
26407;SDS011;14583;43.604;1.364;2023-04-24T08:47:11;7.97;;;1.92;;
26407;SDS011;14583;43.604;1.364;2023-04-24T08:49:37;5.57;;;1.60;;
26407;SDS011;14583;43.604;1.364;2023-04-24T08:52:06;4.55;;;1.38;;
26407;SDS011;14583;43.604;1.364;2023-04-24T08:54:35;6.95;;;1.58;;
26407;SDS011;14583;43.604;1.364;2023-04-24T08:57:02;8.73;;;1.83;;
26407;SDS011;14583;43.604;1.364;2023-04-24T08:59:31;7.45;;;1.63;;
26407;SDS011;14583;43.604;1.364;2023-04-24T09:01:57;8.23;;;1.95;;
26407;SDS011;14583;43.604;1.364;2023-04-24T09:04:23;6.63;;;1.77;;
26407;SDS011;14583;43.604;1.364;2023-04-24T09:06:50;6.32;;;1.85;;
26407;SDS011;14583;43.604;1.364;2023-04-24T09:09:17;6.57;;;2.03;;
26407;SDS011;14583;43.604;1.364;2023-04-24T09:11:43;5.90;;;1.60;;
26407;SDS011;14583;43.604;1.364;2023-04-24T09:14:09;5.80;;;1.60;;
26407;SDS011;14583;43.604;1.364;2023-04-24T09:16:36;9.40;;;1.73;;
26407;SDS011;14583;43.604;1.364;2023-04-24T09:19:01;5.55;;;1.52;;
26407;SDS011;14583;43.604;1.364;2023-04-24T09:21:31;14.57;;;2.35;;
26407;SDS011;14583;43.604;1.364;2023-04-24T09:23:59;9.15;;;1.77;;
26407;SDS011;14583;43.604;1.364;2023-04-24T09:26:28;8.15;;;1.70;;
26407;SDS011;14583;43.604;1.364;2023-04-24T09:28:56;5.10;;;1.90;;
26407;SDS011;14583;43.604;1.364;2023-04-24T09:31:22;6.05;;;1.80;;
26407;SDS011;14583;43.604;1.364;2023-04-24T09:34:03;5.75;;;1.42;;
26407;SDS011;14583;43.604;1.364;2023-04-24T09:36:32;6.85;;;2.13;;
26407;SDS011;14583;43.604;1.364;2023-04-24T09:39:03;7.03;;;1.55;;
26407;SDS011;14583;43.604;1.364;2023-04-24T09:41:31;6.53;;;1.70;;
26407;SDS011;14583;43.604;1.364;2023-04-24T09:44:20;8.80;;;1.75;;
26407;SDS011;14583;43.604;1.364;2023-04-24T09:46:51;7.53;;;1.75;;
26407;SDS011;14583;43.604;1.364;2023-04-24T09:49:25;7.53;;;1.85;;
26407;SDS011;14583;43.604;1.364;2023-04-24T09:51:52;10.20;;;2.30;;
26407;SDS011;14583;43.604;1.364;2023-04-24T09:54:27;5.80;;;2.00;;
26407;SDS011;14583;43.604;1.364;2023-04-24T09:56:54;9.07;;;1.83;;
26407;SDS011;14583;43.604;1.364;2023-04-24T09:59:21;5.53;;;1.55;;
26407;SDS011;14583;43.604;1.364;2023-04-24T10:01:47;8.00;;;1.73;;
26407;SDS011;14583;43.604;1.364;2023-04-24T10:06:47;6.35;;;1.70;;
26407;SDS011;14583;43.604;1.364;2023-04-24T10:09:14;6.50;;;1.85;;
26407;SDS011;14583;43.604;1.364;2023-04-24T10:11:41;7.22;;;2.45;;
26407;SDS011;14583;43.604;1.364;2023-04-24T10:14:11;7.03;;;1.70;;
26407;SDS011;14583;43.604;1.364;2023-04-24T10:16:39;7.40;;;1.80;;
26407;SDS011;14583;43.604;1.364;2023-04-24T10:19:06;4.78;;;1.70;;
26407;SDS011;14583;43.604;1.364;2023-04-24T10:21:32;6.43;;;1.58;;
26407;SDS011;14583;43.604;1.364;2023-04-24T10:23:59;10.90;;;1.67;;
26407;SDS011;14583;43.604;1.364;2023-04-24T10:26:28;8.02;;;1.88;;
26407;SDS011;14583;43.604;1.364;2023-04-24T10:28:54;5.45;;;1.98;;
26407;SDS011;14583;43.604;1.364;2023-04-24T10:31:23;5.63;;;1.50;;
26407;SDS011;14583;43.604;1.364;2023-04-24T10:33:50;7.50;;;1.48;;
26407;SDS011;14583;43.604;1.364;2023-04-24T10:36:17;6.00;;;1.75;;
26407;SDS011;14583;43.604;1.364;2023-04-24T10:38:44;8.30;;;2.35;;
26407;SDS011;14583;43.604;1.364;2023-04-24T10:41:12;6.60;;;1.63;;
26407;SDS011;14583;43.604;1.364;2023-04-24T10:43:46;7.82;;;1.52;;
26407;SDS011;14583;43.604;1.364;2023-04-24T10:46:17;9.35;;;2.20;;
26407;SDS011;14583;43.604;1.364;2023-04-24T10:48:52;5.07;;;1.60;;
26407;SDS011;14583;43.604;1.364;2023-04-24T10:51:21;9.38;;;1.95;;
26407;SDS011;14583;43.604;1.364;2023-04-24T10:54:26;6.60;;;1.40;;
26407;SDS011;14583;43.604;1.364;2023-04-24T10:57:28;5.68;;;1.73;;
26407;SDS011;14583;43.604;1.364;2023-04-24T11:02:41;4.40;;;1.55;;
26407;SDS011;14583;43.604;1.364;2023-04-24T11:05:17;5.32;;;1.65;;
26407;SDS011;14583;43.604;1.364;2023-04-24T11:10:45;5.72;;;1.40;;
26407;SDS011;14583;43.604;1.364;2023-04-24T11:13:15;5.65;;;1.88;;
26407;SDS011;14583;43.604;1.364;2023-04-24T11:15:42;8.25;;;1.60;;
26407;SDS011;14583;43.604;1.364;2023-04-24T11:18:12;4.57;;;1.55;;
26407;SDS011;14583;43.604;1.364;2023-04-24T11:20:42;5.38;;;1.75;;
26407;SDS011;14583;43.604;1.364;2023-04-24T11:23:08;7.88;;;1.52;;
26407;SDS011;14583;43.604;1.364;2023-04-24T11:25:37;10.88;;;1.90;;
26407;SDS011;14583;43.604;1.364;2023-04-24T11:28:03;9.45;;;2.08;;
26407;SDS011;14583;43.604;1.364;2023-04-24T11:30:30;5.70;;;1.67;;
26407;SDS011;14583;43.604;1.364;2023-04-24T11:33:01;6.70;;;1.92;;
26407;SDS011;14583;43.604;1.364;2023-04-24T11:35:29;5.18;;;1.50;;
26407;SDS011;14583;43.604;1.364;2023-04-24T11:37:59;7.05;;;3.33;;
26407;SDS011;14583;43.604;1.364;2023-04-24T11:40:27;7.78;;;2.10;;
26407;SDS011;14583;43.604;1.364;2023-04-24T11:42:53;6.50;;;2.08;;
26407;SDS011;14583;43.604;1.364;2023-04-24T11:45:25;6.53;;;1.75;;
26407;SDS011;14583;43.604;1.364;2023-04-24T11:47:52;9.23;;;2.00;;
26407;SDS011;14583;43.604;1.364;2023-04-24T11:50:21;8.00;;;2.03;;
26407;SDS011;14583;43.604;1.364;2023-04-24T11:52:49;4.75;;;1.80;;
26407;SDS011;14583;43.604;1.364;2023-04-24T11:57:59;5.07;;;1.80;;
26407;SDS011;14583;43.604;1.364;2023-04-24T12:00:27;10.90;;;2.25;;
26407;SDS011;14583;43.604;1.364;2023-04-24T12:03:07;6.68;;;1.80;;
26407;SDS011;14583;43.604;1.364;2023-04-24T12:05:34;6.70;;;1.70;;
26407;SDS011;14583;43.604;1.364;2023-04-24T12:08:00;7.60;;;1.90;;
26407;SDS011;14583;43.604;1.364;2023-04-24T12:10:28;8.88;;;2.28;;
26407;SDS011;14583;43.604;1.364;2023-04-24T12:12:55;7.05;;;1.75;;
26407;SDS011;14583;43.604;1.364;2023-04-24T12:15:22;5.63;;;1.80;;
26407;SDS011;14583;43.604;1.364;2023-04-24T12:17:50;6.75;;;1.60;;
26407;SDS011;14583;43.604;1.364;2023-04-24T12:20:16;6.68;;;2.03;;
26407;SDS011;14583;43.604;1.364;2023-04-24T12:22:55;9.30;;;2.17;;
26407;SDS011;14583;43.604;1.364;2023-04-24T12:25:26;5.90;;;1.85;;
26407;SDS011;14583;43.604;1.364;2023-04-24T12:27:54;6.13;;;2.03;;
26407;SDS011;14583;43.604;1.364;2023-04-24T12:30:21;6.47;;;1.73;;
26407;SDS011;14583;43.604;1.364;2023-04-24T12:32:51;7.03;;;1.98;;
26407;SDS011;14583;43.604;1.364;2023-04-24T12:35:20;5.95;;;2.03;;
26407;SDS011;14583;43.604;1.364;2023-04-24T12:37:50;9.35;;;1.70;;
26407;SDS011;14583;43.604;1.364;2023-04-24T12:40:17;6.40;;;2.20;;
26407;SDS011;14583;43.604;1.364;2023-04-24T12:42:44;6.38;;;1.60;;
26407;SDS011;14583;43.604;1.364;2023-04-24T12:45:14;7.57;;;2.15;;
26407;SDS011;14583;43.604;1.364;2023-04-24T12:47:41;4.78;;;1.70;;
26407;SDS011;14583;43.604;1.364;2023-04-24T12:50:08;6.55;;;1.55;;
26407;SDS011;14583;43.604;1.364;2023-04-24T12:52:35;7.18;;;1.88;;
26407;SDS011;14583;43.604;1.364;2023-04-24T12:55:01;9.80;;;2.10;;
26407;SDS011;14583;43.604;1.364;2023-04-24T12:57:28;3.17;;;1.35;;
26407;SDS011;14583;43.604;1.364;2023-04-24T12:59:55;18.33;;;4.25;;
26407;SDS011;14583;43.604;1.364;2023-04-24T13:02:22;8.43;;;1.73;;
26407;SDS011;14583;43.604;1.364;2023-04-24T13:04:49;9.10;;;1.90;;
26407;SDS011;14583;43.604;1.364;2023-04-24T13:07:15;5.82;;;1.35;;
26407;SDS011;14583;43.604;1.364;2023-04-24T13:09:41;6.93;;;1.92;;
26407;SDS011;14583;43.604;1.364;2023-04-24T13:12:08;7.50;;;1.60;;
26407;SDS011;14583;43.604;1.364;2023-04-24T13:14:34;6.78;;;2.20;;
26407;SDS011;14583;43.604;1.364;2023-04-24T13:17:00;4.57;;;1.70;;
26407;SDS011;14583;43.604;1.364;2023-04-24T13:19:26;6.60;;;1.85;;
26407;SDS011;14583;43.604;1.364;2023-04-24T13:21:53;7.28;;;2.00;;
26407;SDS011;14583;43.604;1.364;2023-04-24T13:24:20;8.80;;;2.00;;
26407;SDS011;14583;43.604;1.364;2023-04-24T13:26:49;10.15;;;2.05;;
26407;SDS011;14583;43.604;1.364;2023-04-24T13:29:15;5.25;;;1.75;;
26407;SDS011;14583;43.604;1.364;2023-04-24T13:31:42;7.22;;;2.13;;
26407;SDS011;14583;43.604;1.364;2023-04-24T13:34:07;6.00;;;1.80;;
26407;SDS011;14583;43.604;1.364;2023-04-24T13:36:33;6.57;;;1.67;;
26407;SDS011;14583;43.604;1.364;2023-04-24T13:38:59;4.90;;;1.77;;
26407;SDS011;14583;43.604;1.364;2023-04-24T13:41:24;5.63;;;1.52;;
26407;SDS011;14583;43.604;1.364;2023-04-24T13:43:50;5.80;;;1.70;;
26407;SDS011;14583;43.604;1.364;2023-04-24T13:46:16;7.53;;;2.42;;
26407;SDS011;14583;43.604;1.364;2023-04-24T13:48:42;10.00;;;2.25;;
26407;SDS011;14583;43.604;1.364;2023-04-24T13:51:10;7.07;;;1.85;;
26407;SDS011;14583;43.604;1.364;2023-04-24T13:53:36;4.32;;;1.65;;
26407;SDS011;14583;43.604;1.364;2023-04-24T13:56:03;6.47;;;1.85;;
26407;SDS011;14583;43.604;1.364;2023-04-24T13:58:29;10.43;;;2.20;;
26407;SDS011;14583;43.604;1.364;2023-04-24T14:00:55;6.47;;;2.13;;
26407;SDS011;14583;43.604;1.364;2023-04-24T14:03:21;12.18;;;1.90;;
26407;SDS011;14583;43.604;1.364;2023-04-24T14:05:46;8.57;;;1.80;;
26407;SDS011;14583;43.604;1.364;2023-04-24T14:08:12;10.93;;;2.10;;
26407;SDS011;14583;43.604;1.364;2023-04-24T14:10:38;8.43;;;1.77;;
26407;SDS011;14583;43.604;1.364;2023-04-24T14:13:03;7.30;;;1.70;;
26407;SDS011;14583;43.604;1.364;2023-04-24T14:15:30;9.15;;;1.80;;
26407;SDS011;14583;43.604;1.364;2023-04-24T14:17:56;7.32;;;1.65;;
26407;SDS011;14583;43.604;1.364;2023-04-24T14:20:22;5.30;;;1.77;;
26407;SDS011;14583;43.604;1.364;2023-04-24T14:22:48;5.05;;;1.85;;
26407;SDS011;14583;43.604;1.364;2023-04-24T14:25:13;7.97;;;2.10;;
26407;SDS011;14583;43.604;1.364;2023-04-24T14:27:40;5.85;;;1.77;;
26407;SDS011;14583;43.604;1.364;2023-04-24T14:30:06;6.93;;;1.75;;
26407;SDS011;14583;43.604;1.364;2023-04-24T14:32:32;11.07;;;2.08;;
26407;SDS011;14583;43.604;1.364;2023-04-24T14:34:58;6.63;;;1.90;;
26407;SDS011;14583;43.604;1.364;2023-04-24T14:37:23;6.63;;;1.70;;
26407;SDS011;14583;43.604;1.364;2023-04-24T14:39:49;5.75;;;1.60;;
26407;SDS011;14583;43.604;1.364;2023-04-24T14:42:15;5.03;;;1.70;;
26407;SDS011;14583;43.604;1.364;2023-04-24T14:44:42;6.88;;;1.60;;
26407;SDS011;14583;43.604;1.364;2023-04-24T14:47:07;7.95;;;1.70;;
26407;SDS011;14583;43.604;1.364;2023-04-24T14:49:33;9.70;;;1.75;;
26407;SDS011;14583;43.604;1.364;2023-04-24T14:51:59;7.72;;;2.10;;